Time;durP1;ratioP1;P1;durP2;ratioP2;P2;SDS_P1;SDS_P2;PMS_P1;PMS_P2;Temp;Humidity;BMP_temperature;BMP_pressure;BME280_temperature;BME280_humidity;BME280_pressure;Samples;Min_cycle;Max_cycle;Signal;HPM_P1;HPM_P2
2022/09/04 00:04:56;;;;;;;16.42;14.98;;;;;;;;;;10118634;28;20424;-59
2022/09/04 00:10:01;;;;;;;18.27;16.50;;;;;;;;;;10110027;28;20144;-59
2022/09/04 00:15:26;;;;;;;17.90;16.40;;;;;;;;;;10135559;28;20055;-59
2022/09/04 00:20:49;;;;;;;18.60;16.88;;;;;;;;;;10125774;28;20451;-59
2022/09/04 00:25:46;;;;;;;19.50;17.75;;;;;;;;;;10126811;28;20490;-59
2022/09/04 00:30:49;;;;;;;20.10;18.30;;;;;;;;;;10133222;28;20053;-59
2022/09/04 00:35:54;;;;;;;21.02;18.85;;;;;;;;;;10129087;28;20037;-59
2022/09/04 00:41:03;;;;;;;17.90;16.40;;;;;;;;;;10142030;28;20078;-60
2022/09/04 00:46:14;;;;;;;18.10;16.40;;;;;;;;;;10143799;28;20057;-60
2022/09/04 00:51:46;;;;;;;18.83;17.13;;;;;;;;;;10124245;28;20503;-59
2022/09/04 00:57:12;;;;;;;24.08;19.52;;;;;;;;;;10078938;28;20084;-60
2022/09/04 01:02:15;;;;;;;95.18;57.33;;;;;;;;;;10130517;28;20036;-60
2022/09/04 01:07:44;;;;;;;26.63;22.80;;;;;;;;;;10131804;28;20040;-60
2022/09/04 01:12:50;;;;;;;19.77;18.02;;;;;;;;;;10121620;28;20127;-60
2022/09/04 01:17:46;;;;;;;18.75;16.90;;;;;;;;;;10100527;28;20052;-60
2022/09/04 01:23:01;;;;;;;20.45;18.80;;;;;;;;;;10113200;28;20162;-59
2022/09/04 01:28:03;;;;;;;16.55;15.25;;;;;;;;;;10127942;28;20053;-59
2022/09/04 01:33:13;;;;;;;17.67;16.23;;;;;;;;;;10103423;28;20122;-59
2022/09/04 01:38:22;;;;;;;18.75;17.02;;;;;;;;;;10134280;28;20053;-59
2022/09/04 01:43:35;;;;;;;20.15;18.45;;;;;;;;;;10109304;28;20410;-59
2022/09/04 01:48:40;;;;;;;19.63;17.60;;;;;;;;;;10111614;28;20462;-60
2022/09/04 01:53:36;;;;;;;18.38;16.80;;;;;;;;;;10117694;28;20470;-60
2022/09/04 01:58:53;;;;;;;17.30;15.70;;;;;;;;;;10118299;28;20051;-60
2022/09/04 02:04:22;;;;;;;17.63;16.10;;;;;;;;;;10107682;28;20125;-59
2022/09/04 02:09:47;;;;;;;16.90;15.35;;;;;;;;;;10118650;28;20548;-60
2022/09/04 02:15:11;;;;;;;16.70;14.93;;;;;;;;;;10108312;28;20057;-59
2022/09/04 02:20:04;;;;;;;15.63;14.07;;;;;;;;;;10113953;28;20056;-59
2022/09/04 02:25:12;;;;;;;18.45;16.70;;;;;;;;;;10127114;28;20123;-59
2022/09/04 02:30:10;;;;;;;16.25;14.75;;;;;;;;;;10133710;28;20057;-59
2022/09/04 02:35:48;;;;;;;14.90;13.40;;;;;;;;;;10121444;28;20446;-59
2022/09/04 02:40:51;;;;;;;16.92;15.18;;;;;;;;;;10011016;28;20427;-59
2022/09/04 02:45:58;;;;;;;18.40;16.25;;;;;;;;;;10128185;28;20044;-59
2022/09/04 02:51:01;;;;;;;20.00;18.30;;;;;;;;;;10134668;28;20537;-59
2022/09/04 02:56:21;;;;;;;18.80;17.00;;;;;;;;;;10115965;28;20468;-59
2022/09/04 03:01:43;;;;;;;17.25;15.65;;;;;;;;;;10122671;28;20568;-59
2022/09/04 03:07:17;;;;;;;15.30;14.10;;;;;;;;;;10110648;28;20464;-59
2022/09/04 03:12:49;;;;;;;16.45;14.45;;;;;;;;;;10111211;28;20048;-59
2022/09/04 03:17:57;;;;;;;15.82;14.32;;;;;;;;;;10124566;28;20057;-59
2022/09/04 03:23:02;;;;;;;17.10;15.63;;;;;;;;;;10101326;28;20507;-59
2022/09/04 03:28:12;;;;;;;26.85;19.05;;;;;;;;;;10134954;28;20523;-60
2022/09/04 03:33:15;;;;;;;18.67;16.95;;;;;;;;;;10133685;28;20051;-60
2022/09/04 03:38:44;;;;;;;16.98;15.43;;;;;;;;;;10142282;28;20068;-59
2022/09/04 03:44:11;;;;;;;17.02;15.25;;;;;;;;;;10101768;28;20080;-59
2022/09/04 03:49:07;;;;;;;15.73;14.07;;;;;;;;;;10134641;28;20120;-59
2022/09/04 03:54:22;;;;;;;14.10;12.75;;;;;;;;;;10134900;28;20474;-59
2022/09/04 03:59:31;;;;;;;15.20;13.82;;;;;;;;;;10123488;28;20474;-60
2022/09/04 04:04:36;;;;;;;16.25;14.05;;;;;;;;;;10124705;28;20047;-60
2022/09/04 04:09:59;;;;;;;18.13;16.00;;;;;;;;;;10094062;28;20557;-59
2022/09/04 04:15:23;;;;;;;16.00;13.55;;;;;;;;;;10090455;28;20055;-59
2022/09/04 04:20:37;;;;;;;15.75;13.90;;;;;;;;;;10109695;28;20041;-59
2022/09/04 04:26:04;;;;;;;16.85;13.98;;;;;;;;;;10131011;28;20060;-59
2022/09/04 04:31:26;;;;;;;16.05;12.27;;;;;;;;;;10070306;28;20136;-59
2022/09/04 04:36:28;;;;;;;20.60;13.77;;;;;;;;;;10100325;28;20096;-60
2022/09/04 04:42:04;;;;;;;14.15;12.23;;;;;;;;;;10072252;28;20148;-59
2022/09/04 04:47:34;;;;;;;15.13;13.57;;;;;;;;;;10065192;28;20057;-59
2022/09/04 04:52:48;;;;;;;16.10;13.07;;;;;;;;;;10080941;28;20079;-59
2022/09/04 04:57:59;;;;;;;19.60;15.40;;;;;;;;;;10081785;28;20124;-59
2022/09/04 05:03:21;;;;;;;15.75;14.15;;;;;;;;;;10068808;28;20045;-60
2022/09/04 05:08:44;;;;;;;16.90;15.10;;;;;;;;;;10081882;28;20131;-60
2022/09/04 05:14:17;;;;;;;21.13;17.73;;;;;;;;;;10080950;28;20107;-59
2022/09/04 05:19:30;;;;;;;16.83;15.05;;;;;;;;;;10055250;28;20049;-60
2022/09/04 05:24:30;;;;;;;16.52;14.20;;;;;;;;;;10081078;28;20049;-59
2022/09/04 05:29:50;;;;;;;14.85;13.45;;;;;;;;;;10091866;28;20056;-60
2022/09/04 05:35:00;;;;;;;;;;;;;;;;;;10092785;28;20044;-59
2022/09/04 05:40:12;;;;;;;17.27;15.48;;;;;;;;;;10111195;28;19920;-60
2022/09/04 05:45:17;;;;;;;24.88;17.30;;;;;;;;;;10141896;28;20045;-60
2022/09/04 05:50:34;;;;;;;17.35;15.40;;;;;;;;;;10131857;28;20078;-59
2022/09/04 05:55:53;;;;;;;19.40;16.17;;;;;;;;;;10125675;28;20056;-59
2022/09/04 06:00:59;;;;;;;21.23;17.17;;;;;;;;;;10120979;28;20055;-59
2022/09/04 06:06:07;;;;;;;19.40;16.20;;;;;;;;;;10111856;28;20107;-59
2022/09/04 06:11:25;;;;;;;17.80;16.15;;;;;;;;;;10110580;28;20518;-60
2022/09/04 06:16:39;;;;;;;20.98;16.92;;;;;;;;;;10130976;28;20496;-60
2022/09/04 06:22:10;;;;;;;16.80;15.13;;;;;;;;;;10136287;28;20098;-59
2022/09/04 06:27:16;;;;;;;20.95;15.73;;;;;;;;;;10132800;28;20049;-60
2022/09/04 06:32:39;;;;;;;18.85;15.00;;;;;;;;;;10131849;28;20403;-59
2022/09/04 06:37:35;;;;;;;16.30;14.77;;;;;;;;;;10134709;28;20048;-60
2022/09/04 06:42:47;;;;;;;15.43;13.93;;;;;;;;;;10103738;28;20076;-60
2022/09/04 06:48:02;;;;;;;15.23;13.68;;;;;;;;;;10117353;28;20060;-59
2022/09/04 06:53:20;;;;;;;16.60;14.93;;;;;;;;;;10135999;28;20418;-60
2022/09/04 06:58:25;;;;;;;18.42;16.48;;;;;;;;;;10130138;28;20057;-59
2022/09/04 07:03:19;;;;;;;17.02;13.00;;;;;;;;;;10128918;28;20462;-59
2022/09/04 07:08:46;;;;;;;15.43;13.52;;;;;;;;;;10127214;28;20083;-59
2022/09/04 07:13:54;;;;;;;17.38;15.57;;;;;;;;;;10107026;28;20426;-59
2022/09/04 07:18:51;;;;;;;15.57;13.98;;;;;;;;;;10126715;28;20048;-59
2022/09/04 07:24:38;;;;;;;17.63;12.82;;;;;;;;;;10139975;28;20052;-58
2022/09/04 07:29:35;;;;;;;11.60;10.40;;;;;;;;;;10103626;28;20061;-58
2022/09/04 07:34:43;;;;;;;11.02;10.02;;;;;;;;;;10084021;28;20106;-58
2022/09/04 07:40:10;;;;;;;9.03;7.17;;;;;;;;;;10096499;28;20053;-57
2022/09/04 07:45:22;;;;;;;8.55;7.75;;;;;;;;;;10031388;28;20053;-58
2022/09/04 07:50:22;;;;;;;7.13;6.45;;;;;;;;;;10094842;28;20063;-58
2022/09/04 07:55:39;;;;;;;6.70;4.75;;;;;;;;;;10074060;28;20044;-59
2022/09/04 08:00:42;;;;;;;8.32;5.28;;;;;;;;;;10100857;28;20052;-59
2022/09/04 08:05:50;;;;;;;6.05;5.55;;;;;;;;;;10076311;28;21820;-59
2022/09/04 08:10:53;;;;;;;7.35;6.28;;;;;;;;;;10105529;28;20052;-59
2022/09/04 08:15:57;;;;;;;10.80;4.43;;;;;;;;;;10096762;28;20049;-59
2022/09/04 08:21:21;;;;;;;6.25;4.60;;;;;;;;;;10086869;28;20041;-60
2022/09/04 08:26:41;;;;;;;6.13;3.08;;;;;;;;;;10093732;28;20143;-59
2022/09/04 08:32:06;;;;;;;6.80;3.85;;;;;;;;;;10031979;28;20494;-59
2022/09/04 08:37:16;;;;;;;10.25;3.72;;;;;;;;;;10102920;28;20071;-58
2022/09/04 08:42:36;;;;;;;6.13;4.70;;;;;;;;;;10101588;28;20087;-60
2022/09/04 08:47:45;;;;;;;5.60;3.85;;;;;;;;;;10103881;28;20045;-59
2022/09/04 08:52:56;;;;;;;9.05;4.60;;;;;;;;;;10108761;28;20080;-60
2022/09/04 08:58:18;;;;;;;6.87;5.43;;;;;;;;;;10108194;28;20065;-61
2022/09/04 09:03:39;;;;;;;7.97;5.90;;;;;;;;;;10098755;28;20503;-59
2022/09/04 09:09:02;;;;;;;9.60;6.47;;;;;;;;;;10105389;28;20080;-59
2022/09/04 09:14:13;;;;;;;7.22;5.75;;;;;;;;;;10116800;28;20072;-57
2022/09/04 09:19:15;;;;;;;5.93;5.32;;;;;;;;;;10101868;28;20139;-58
2022/09/04 09:24:44;;;;;;;7.22;5.45;;;;;;;;;;10104649;28;20049;-57
2022/09/04 09:29:56;;;;;;;5.00;4.47;;;;;;;;;;10106737;28;20055;-57
2022/09/04 09:35:07;;;;;;;8.63;5.65;;;;;;;;;;10103930;28;20040;-56
2022/09/04 09:40:21;;;;;;;6.75;3.92;;;;;;;;;;10106979;28;20037;-57
2022/09/04 09:45:43;;;;;;;5.78;4.43;;;;;;;;;;10107427;28;20067;-57
2022/09/04 09:51:07;;;;;;;5.63;4.10;;;;;;;;;;10087727;28;20144;-57
2022/09/04 09:56:27;;;;;;;11.98;3.75;;;;;;;;;;10117332;28;20048;-57
2022/09/04 10:01:23;;;;;;;6.03;3.97;;;;;;;;;;10119969;28;20041;-57
2022/09/04 10:06:17;;;;;;;6.18;3.35;;;;;;;;;;10120470;28;20045;-57
2022/09/04 10:11:54;;;;;;;8.02;3.95;;;;;;;;;;10118495;28;20132;-57
2022/09/04 10:17:08;;;;;;;5.10;3.65;;;;;;;;;;10026244;28;20064;-57
2022/09/04 10:22:08;;;;;;;5.75;3.67;;;;;;;;;;10112184;28;20500;-58
2022/09/04 10:27:19;;;;;;;6.47;2.75;;;;;;;;;;10124351;28;20521;-59
2022/09/04 10:32:21;;;;;;;5.10;3.22;;;;;;;;;;10135859;28;20061;-59
2022/09/04 10:37:39;;;;;;;2.17;1.85;;;;;;;;;;10126928;28;20111;-58
2022/09/04 10:42:33;;;;;;;4.47;1.80;;;;;;;;;;10127543;28;20506;-58
2022/09/04 10:47:32;;;;;;;3.25;2.40;;;;;;;;;;10121596;28;20053;-59
2022/09/04 10:52:41;;;;;;;6.07;2.47;;;;;;;;;;10112310;28;20049;-63
2022/09/04 10:58:09;;;;;;;5.80;1.95;;;;;;;;;;10084336;28;20131;-60
2022/09/04 11:03:37;;;;;;;7.82;2.95;;;;;;;;;;10094376;28;20037;-59
2022/09/04 11:08:35;;;;;;;3.90;1.80;;;;;;;;;;10090297;28;20072;-61
2022/09/04 11:13:55;;;;;;;3.47;2.00;;;;;;;;;;10118779;28;20389;-61
2022/09/04 11:19:32;;;;;;;5.28;2.33;;;;;;;;;;10116398;28;20084;-62
2022/09/04 11:24:52;;;;;;;6.28;2.53;;;;;;;;;;10115897;28;20044;-61
2022/09/04 11:30:03;;;;;;;11.25;2.30;;;;;;;;;;10141369;28;20541;-61
2022/09/04 11:34:58;;;;;;;3.47;2.42;;;;;;;;;;10118539;28;20068;-60
2022/09/04 11:39:51;;;;;;;;;;;;;;;;;;10137191;28;20045;-61
2022/09/04 11:44:59;;;;;;;4.72;2.28;;;;;;;;;;10125563;28;19920;-60
2022/09/04 11:50:14;;;;;;;4.18;2.33;;;;;;;;;;10119724;28;20053;-60
2022/09/04 11:55:43;;;;;;;3.38;2.35;;;;;;;;;;10148353;28;20128;-60
2022/09/04 12:00:57;;;;;;;4.15;2.20;;;;;;;;;;10132303;28;20049;-60
2022/09/04 12:05:49;;;;;;;3.90;1.95;;;;;;;;;;10117800;28;20055;-61
2022/09/04 12:11:07;;;;;;;2.90;2.00;;;;;;;;;;10115472;28;20045;-62
2022/09/04 12:16:19;;;;;;;3.22;2.20;;;;;;;;;;10111433;28;20055;-63
2022/09/04 12:21:51;;;;;;;3.47;2.00;;;;;;;;;;10129999;28;20491;-61
2022/09/04 12:27:00;;;;;;;3.38;1.80;;;;;;;;;;10103656;28;20048;-60
2022/09/04 12:32:30;;;;;;;2.67;1.70;;;;;;;;;;10129845;28;20052;-61
2022/09/04 12:37:42;;;;;;;3.28;1.55;;;;;;;;;;10122652;28;20053;-60
2022/09/04 12:43:25;;;;;;;6.97;1.92;;;;;;;;;;10109122;28;20057;-61
2022/09/04 12:48:53;;;;;;;2.97;1.70;;;;;;;;;;10080120;28;20533;-61
2022/09/04 12:53:56;;;;;;;3.03;1.73;;;;;;;;;;9957798;28;20066;-61
2022/09/04 12:59:14;;;;;;;2.28;1.92;;;;;;;;;;10089456;28;20136;-61
2022/09/04 13:04:20;;;;;;;2.97;1.70;;;;;;;;;;10130840;28;20094;-61
2022/09/04 13:09:51;;;;;;;3.75;1.90;;;;;;;;;;10124103;28;20501;-61
2022/09/04 13:15:07;;;;;;;3.42;1.70;;;;;;;;;;10110803;28;20103;-60
2022/09/04 13:20:25;;;;;;;2.10;1.50;;;;;;;;;;10107532;28;20056;-61
2022/09/04 13:25:29;;;;;;;4.30;2.20;;;;;;;;;;10107925;28;20144;-62
2022/09/04 13:30:24;;;;;;;3.63;2.03;;;;;;;;;;10105698;28;20507;-61
2022/09/04 13:35:40;;;;;;;4.90;1.90;;;;;;;;;;10096502;28;20455;-62
2022/09/04 13:41:11;;;;;;;2.00;1.77;;;;;;;;;;10099937;28;20484;-61
2022/09/04 13:46:13;;;;;;;2.13;1.90;;;;;;;;;;10031519;28;20106;-62
2022/09/04 13:51:31;;;;;;;2.05;1.77;;;;;;;;;;10089477;28;20053;-61
2022/09/04 13:56:58;;;;;;;3.05;2.25;;;;;;;;;;10105172;28;20045;-61
2022/09/04 14:01:54;;;;;;;3.13;2.17;;;;;;;;;;10106232;28;20052;-62
2022/09/04 14:06:48;;;;;;;4.70;2.03;;;;;;;;;;10102715;28;20503;-61
2022/09/04 14:12:08;;;;;;;2.25;1.92;;;;;;;;;;10109717;28;20072;-62
2022/09/04 14:17:04;;;;;;;2.33;1.85;;;;;;;;;;10104866;28;20549;-63
2022/09/04 14:22:16;;;;;;;;;;;;;;;;;;10110700;28;20565;-62
2022/09/04 14:27:24;;;;;;;4.40;1.80;;;;;;;;;;10107172;28;19928;-61
2022/09/04 14:32:27;;;;;;;1.95;1.52;;;;;;;;;;10024362;28;20046;-61
2022/09/04 14:37:47;;;;;;;2.58;1.95;;;;;;;;;;10027101;28;20057;-61
2022/09/04 14:42:48;;;;;;;5.35;2.05;;;;;;;;;;10029991;28;20421;-62
2022/09/04 14:47:53;;;;;;;4.18;1.67;;;;;;;;;;10029303;28;20081;-62
2022/09/04 14:52:54;;;;;;;4.57;2.50;;;;;;;;;;10015202;28;20112;-63
2022/09/04 14:57:55;;;;;;;2.70;2.10;;;;;;;;;;10030367;28;20070;-62
2022/09/04 15:03:10;;;;;;;8.07;2.00;;;;;;;;;;10019215;28;20064;-62
2022/09/04 15:08:07;;;;;;;3.38;2.35;;;;;;;;;;10024066;28;20041;-62
2022/09/04 15:13:25;;;;;;;2.80;2.30;;;;;;;;;;10027987;28;20053;-62
2022/09/04 15:18:25;;;;;;;2.08;1.83;;;;;;;;;;10021871;28;20141;-62
2022/09/04 15:24:02;;;;;;;2.13;1.90;;;;;;;;;;10026663;28;20618;-62
2022/09/04 15:29:06;;;;;;;3.43;2.07;;;;;;;;;;10050219;28;20418;-62
2022/09/04 15:34:06;;;;;;;3.97;1.88;;;;;;;;;;10095476;28;20050;-62
2022/09/04 15:39:03;;;;;;;5.05;2.58;;;;;;;;;;10092837;28;20106;-62
2022/09/04 15:44:17;;;;;;;3.22;2.15;;;;;;;;;;10108368;28;20056;-63
2022/09/04 15:49:23;;;;;;;4.97;2.50;;;;;;;;;;10117141;28;20084;-63
2022/09/04 15:54:27;;;;;;;3.03;2.38;;;;;;;;;;10094623;28;20049;-63
2022/09/04 15:59:44;;;;;;;5.13;2.38;;;;;;;;;;10111406;28;20077;-65
2022/09/04 16:05:02;;;;;;;2.72;2.35;;;;;;;;;;10077178;28;20049;-63
2022/09/04 16:10:08;;;;;;;3.13;2.70;;;;;;;;;;10096884;28;20059;-63
2022/09/04 16:15:10;;;;;;;8.50;2.38;;;;;;;;;;10085334;28;20143;-63
2022/09/04 16:20:59;;;;;;;4.03;2.50;;;;;;;;;;10096615;28;20060;-63
2022/09/04 16:25:58;;;;;;;3.28;2.40;;;;;;;;;;9972087;28;20069;-63
2022/09/04 16:31:05;;;;;;;2.47;2.28;;;;;;;;;;10083560;28;20087;-60
2022/09/04 16:36:00;;;;;;;3.22;1.90;;;;;;;;;;10080129;28;20403;-61
2022/09/04 16:41:24;;;;;;;2.40;2.20;;;;;;;;;;10103646;28;20371;-61
2022/09/04 16:46:28;;;;;;;3.63;2.60;;;;;;;;;;10096223;28;20056;-61
2022/09/04 16:51:29;;;;;;;4.88;3.03;;;;;;;;;;10084424;28;20053;-62
2022/09/04 16:56:41;;;;;;;4.45;2.60;;;;;;;;;;10085247;28;20083;-62
2022/09/04 17:02:12;;;;;;;4.22;2.60;;;;;;;;;;10107968;28;20444;-62
2022/09/04 17:07:07;;;;;;;5.93;2.33;;;;;;;;;;10092942;28;20095;-63
2022/09/04 17:12:17;;;;;;;3.17;2.40;;;;;;;;;;10106466;28;20049;-64
2022/09/04 17:17:21;;;;;;;4.53;2.72;;;;;;;;;;10101580;28;20056;-61
2022/09/04 17:22:36;;;;;;;3.40;2.70;;;;;;;;;;10112681;28;20069;-61
2022/09/04 17:28:11;;;;;;;11.73;3.20;;;;;;;;;;10110241;28;20065;-60
2022/09/04 17:33:31;;;;;;;3.22;2.90;;;;;;;;;;10104541;28;20415;-61
2022/09/04 17:39:02;;;;;;;8.32;3.90;;;;;;;;;;10110984;28;20053;-62
2022/09/04 17:44:44;;;;;;;4.35;3.10;;;;;;;;;;10108526;28;20037;-61
2022/09/04 17:49:42;;;;;;;3.50;3.20;;;;;;;;;;10126767;28;20475;-61
2022/09/04 17:54:39;;;;;;;4.70;2.85;;;;;;;;;;10117765;28;20496;-61
2022/09/04 17:59:43;;;;;;;5.38;2.92;;;;;;;;;;10113647;28;20049;-61
2022/09/04 18:05:14;;;;;;;6.65;3.70;;;;;;;;;;10098839;28;20048;-62
2022/09/04 18:10:52;;;;;;;6.15;3.85;;;;;;;;;;10119301;28;20057;-60
2022/09/04 18:15:59;;;;;;;8.50;3.50;;;;;;;;;;10106866;28;20067;-64
2022/09/04 18:21:06;;;;;;;7.90;4.60;;;;;;;;;;10103869;28;20528;-62
2022/09/04 18:26:46;;;;;;;4.13;3.42;;;;;;;;;;10088552;28;20045;-63
2022/09/04 18:32:05;;;;;;;10.55;3.30;;;;;;;;;;10104333;28;20190;-62
2022/09/04 18:37:23;;;;;;;6.75;3.30;;;;;;;;;;10089100;28;20041;-62
2022/09/04 18:43:04;;;;;;;4.05;3.55;;;;;;;;;;10099768;28;20056;-62
2022/09/04 18:48:22;;;;;;;4.40;3.50;;;;;;;;;;10096160;28;20116;-62
2022/09/04 18:53:52;;;;;;;5.43;3.83;;;;;;;;;;10100188;28;20045;-61
2022/09/04 18:58:54;;;;;;;4.30;3.78;;;;;;;;;;10106165;28;20801;-60
2022/09/04 19:03:54;;;;;;;8.80;4.13;;;;;;;;;;10105328;28;20041;-62
2022/09/04 19:08:50;;;;;;;8.73;3.38;;;;;;;;;;10111111;28;20220;-60
2022/09/04 19:13:50;;;;;;;3.47;3.17;;;;;;;;;;10104189;28;20047;-63
2022/09/04 19:19:04;;;;;;;14.38;4.82;;;;;;;;;;10088890;28;20053;-63
2022/09/04 19:24:31;;;;;;;13.13;3.55;;;;;;;;;;10093376;28;20063;-62
2022/09/04 19:29:43;;;;;;;6.15;3.90;;;;;;;;;;10110456;28;20069;-62
2022/09/04 19:34:41;;;;;;;7.18;4.05;;;;;;;;;;10089834;28;20129;-61
2022/09/04 19:40:09;;;;;;;7.60;4.82;;;;;;;;;;10100791;28;20049;-63
2022/09/04 19:45:31;;;;;;;4.88;4.40;;;;;;;;;;10041882;28;20094;-62
2022/09/04 19:50:48;;;;;;;10.55;4.68;;;;;;;;;;10106677;28;20563;-61
2022/09/04 19:56:13;;;;;;;5.50;4.60;;;;;;;;;;10101626;28;20079;-62
2022/09/04 20:01:16;;;;;;;4.78;3.75;;;;;;;;;;10107408;28;20041;-62
2022/09/04 20:06:15;;;;;;;5.00;4.35;;;;;;;;;;10104610;28;20052;-64
2022/09/04 20:11:21;;;;;;;12.55;4.70;;;;;;;;;;10102261;28;20040;-64
2022/09/04 20:16:41;;;;;;;5.35;4.53;;;;;;;;;;10098894;28;20492;-64
2022/09/04 20:21:42;;;;;;;7.38;5.28;;;;;;;;;;10087252;28;20133;-61
2022/09/04 20:26:49;;;;;;;6.20;4.82;;;;;;;;;;10108020;28;20127;-61
2022/09/04 20:32:09;;;;;;;11.02;5.53;;;;;;;;;;10092006;28;20045;-61
2022/09/04 20:37:32;;;;;;;7.95;4.85;;;;;;;;;;10104613;28;20051;-61
2022/09/04 20:42:52;;;;;;;8.18;4.57;;;;;;;;;;10094128;28;20056;-60
2022/09/04 20:47:59;;;;;;;4.40;4.00;;;;;;;;;;10049715;28;20136;-60
2022/09/04 20:53:29;;;;;;;6.25;5.10;;;;;;;;;;10104118;28;20040;-60
2022/09/04 20:58:55;;;;;;;9.05;4.57;;;;;;;;;;10084530;28;20090;-60
2022/09/04 21:04:26;;;;;;;7.32;4.35;;;;;;;;;;10088963;28;20060;-59
2022/09/04 21:09:57;;;;;;;7.13;4.07;;;;;;;;;;10101295;28;20049;-61
2022/09/04 21:15:00;;;;;;;5.28;4.40;;;;;;;;;;10099441;28;20123;-58
2022/09/04 21:20:03;;;;;;;7.47;4.43;;;;;;;;;;10102604;28;20139;-59
2022/09/04 21:25:12;;;;;;;6.78;4.00;;;;;;;;;;10100552;28;20408;-59
2022/09/04 21:30:36;;;;;;;6.88;4.20;;;;;;;;;;10098258;28;20080;-61
2022/09/04 21:35:36;;;;;;;7.38;4.22;;;;;;;;;;10100232;28;20128;-62
2022/09/04 21:41:09;;;;;;;9.85;4.25;;;;;;;;;;10082016;28;20045;-61
2022/09/04 21:46:23;;;;;;;4.43;4.03;;;;;;;;;;10115848;28;20053;-62
2022/09/04 21:51:35;;;;;;;15.07;6.78;;;;;;;;;;10114257;28;20462;-62
2022/09/04 21:56:44;;;;;;;10.52;5.82;;;;;;;;;;10113797;28;20030;-62
2022/09/04 22:02:22;;;;;;;4.88;4.00;;;;;;;;;;10095047;28;20099;-61
2022/09/04 22:08:13;;;;;;;5.38;4.07;;;;;;;;;;10115462;28;20545;-67
2022/09/04 22:13:40;;;;;;;7.63;5.50;;;;;;;;;;10115946;28;20055;-76
2022/09/04 22:19:13;;;;;;;7.15;5.43;;;;;;;;;;10100117;28;20045;-72
2022/09/04 22:24:30;;;;;;;5.10;4.68;;;;;;;;;;10089988;28;20053;-68
2022/09/04 22:30:04;;;;;;;6.03;5.53;;;;;;;;;;10112258;28;20083;-68
2022/09/04 22:34:57;;;;;;;6.80;5.20;;;;;;;;;;10098642;28;20052;-69
2022/09/04 22:39:53;;;;;;;5.32;4.82;;;;;;;;;;10104721;28;20381;-69
2022/09/04 22:45:19;;;;;;;6.18;4.95;;;;;;;;;;10121421;28;20068;-68
2022/09/04 22:50:27;;;;;;;4.97;4.55;;;;;;;;;;9970084;28;20067;-68
2022/09/04 22:56:15;;;;;;;5.30;4.80;;;;;;;;;;10111912;28;20399;-68
2022/09/04 23:01:19;;;;;;;5.90;4.45;;;;;;;;;;10119835;28;20052;-70
2022/09/04 23:06:47;;;;;;;5.90;5.30;;;;;;;;;;10119365;28;20102;-70
2022/09/04 23:12:15;;;;;;;6.88;4.68;;;;;;;;;;10119279;28;20472;-70
2022/09/04 23:17:51;;;;;;;9.75;4.28;;;;;;;;;;10118816;28;20410;-70
2022/09/04 23:23:41;;;;;;;4.85;4.45;;;;;;;;;;10116073;28;20065;-70
2022/09/04 23:28:53;;;;;;;;;;;;;;;;;;10122575;28;20147;-70
2022/09/04 23:34:28;;;;;;;4.97;4.50;;;;;;;;;;10124039;28;19935;-70
2022/09/04 23:40:03;;;;;;;4.50;4.10;;;;;;;;;;10046547;28;20057;-71
2022/09/04 23:46:00;;;;;;;5.72;4.85;;;;;;;;;;10094583;28;20056;-70
2022/09/04 23:50:59;;;;;;;6.40;4.93;;;;;;;;;;9992006;28;20504;-70
2022/09/04 23:56:03;;;;;;;5.80;5.25;;;;;;;;;;10112454;28;20091;-70
